createdAt,value
2023-05-10T00:01:07.175Z,68.29
2023-05-10T00:03:33.672Z,68.47
2023-05-10T00:06:00.411Z,69.76
2023-05-10T00:08:26.866Z,69.42
2023-05-10T00:10:53.865Z,69.33
2023-05-10T00:13:20.433Z,71.49
2023-05-10T00:15:46.941Z,72.59
2023-05-10T00:18:13.453Z,73.89
2023-05-10T00:20:39.955Z,74.40
2023-05-10T00:23:06.576Z,74.40
2023-05-10T00:25:33.021Z,73.67
2023-05-10T00:27:59.557Z,74.64
2023-05-10T00:30:26.046Z,74.68
2023-05-10T00:32:52.768Z,76.20
2023-05-10T00:35:19.436Z,75.78
2023-05-10T00:37:46.103Z,74.42
2023-05-10T00:40:12.780Z,75.56
2023-05-10T00:42:39.253Z,74.39
2023-05-10T00:45:06.450Z,73.41
2023-05-10T00:47:32.930Z,76.63
2023-05-10T00:50:01.514Z,75.89
2023-05-10T00:52:29.242Z,76.49
2023-05-10T00:54:55.694Z,76.75
2023-05-10T00:57:23.031Z,77.74
2023-05-10T00:59:49.567Z,78.40
2023-05-10T01:02:16.172Z,75.71
2023-05-10T01:04:42.785Z,75.52
2023-05-10T01:07:09.327Z,73.54
2023-05-10T01:09:35.847Z,72.17
2023-05-10T01:12:02.893Z,72.91
2023-05-10T01:14:29.451Z,70.08
2023-05-10T01:16:55.951Z,70.18
2023-05-10T01:19:30.017Z,70.60
2023-05-10T01:22:11.746Z,68.51
2023-05-10T01:25:08.837Z,70.24
2023-05-10T01:27:41.002Z,70.85
2023-05-10T01:30:22.443Z,68.90
2023-05-10T01:32:54.325Z,70.24
2023-05-10T01:35:38.016Z,71.40
2023-05-10T01:38:40.344Z,71.50
2023-05-10T01:41:16.417Z,71.12
2023-05-10T01:44:11.033Z,69.06
2023-05-10T01:46:38.553Z,71.22
2023-05-10T01:49:09.836Z,70.87
2023-05-10T01:51:42.940Z,71.78
2023-05-10T01:54:09.398Z,73.00
2023-05-10T01:56:36.325Z,75.26
2023-05-10T01:59:05.200Z,77.13
2023-05-10T02:01:31.657Z,78.29
2023-05-10T02:03:58.235Z,78.84
2023-05-10T02:06:24.922Z,78.66
2023-05-10T02:08:51.484Z,79.17
2023-05-10T02:11:18.459Z,78.70
2023-05-10T02:13:46.048Z,76.05
2023-05-10T02:16:12.532Z,78.21
2023-05-10T02:18:39.121Z,78.04
2023-05-10T02:21:05.612Z,78.88
2023-05-10T02:23:32.060Z,79.98
2023-05-10T02:25:58.578Z,79.72
2023-05-10T02:28:25.516Z,79.94
2023-05-10T02:30:52.350Z,81.20
2023-05-10T02:33:19.068Z,81.47
2023-05-10T02:35:45.607Z,82.92
2023-05-10T02:38:12.738Z,83.04
2023-05-10T02:40:39.255Z,84.27
2023-05-10T02:43:05.757Z,85.49
2023-05-10T02:45:32.375Z,86.08
2023-05-10T02:47:59.252Z,85.28
2023-05-10T02:50:28.390Z,83.78
2023-05-10T02:52:56.871Z,82.50
2023-05-10T02:55:24.658Z,84.78
2023-05-10T02:57:57.959Z,84.92
2023-05-10T03:00:25.704Z,85.76
2023-05-10T03:02:52.315Z,87.50
2023-05-10T03:05:19.645Z,87.34
2023-05-10T03:07:46.401Z,88.09
2023-05-10T03:10:12.915Z,83.87
2023-05-10T03:12:58.171Z,86.76
2023-05-10T03:15:33.844Z,83.75
2023-05-10T03:18:07.906Z,81.90
2023-05-10T03:20:59.066Z,82.36
2023-05-10T03:23:28.604Z,84.53
2023-05-10T03:25:55.134Z,86.18
2023-05-10T03:28:21.734Z,85.61
2023-05-10T03:30:48.454Z,84.38
2023-05-10T03:33:15.176Z,85.98
2023-05-10T03:35:41.749Z,86.67
2023-05-10T03:38:08.258Z,87.95
2023-05-10T03:40:34.816Z,85.71
2023-05-10T03:43:01.344Z,83.84
2023-05-10T03:45:28.006Z,84.26
2023-05-10T03:47:55.038Z,85.40
2023-05-10T03:50:21.990Z,87.72
2023-05-10T03:52:48.807Z,88.28
2023-05-10T03:55:15.362Z,88.91
2023-05-10T03:57:41.835Z,88.26
2023-05-10T04:00:09.177Z,87.56
2023-05-10T04:02:35.797Z,88.55
2023-05-10T04:05:02.715Z,88.54
2023-05-10T04:07:29.741Z,89.80
2023-05-10T04:09:56.253Z,87.99
2023-05-10T04:12:22.742Z,88.60
2023-05-10T04:14:49.390Z,89.16
2023-05-10T04:17:15.936Z,89.99
2023-05-10T04:19:42.421Z,90.38
2023-05-10T04:22:09.367Z,90.36
2023-05-10T04:24:35.832Z,90.76
2023-05-10T04:27:02.268Z,88.96
2023-05-10T04:29:28.831Z,87.89
2023-05-10T04:31:56.215Z,88.34
2023-05-10T04:34:22.686Z,88.12
2023-05-10T04:36:49.183Z,88.17
2023-05-10T04:39:15.699Z,92.13
2023-05-10T04:41:42.159Z,92.03
2023-05-10T04:44:08.683Z,91.42
2023-05-10T04:46:35.197Z,90.06
2023-05-10T04:49:02.014Z,90.24
2023-05-10T04:51:28.511Z,91.95
2023-05-10T04:54:05.377Z,92.46
2023-05-10T04:56:33.255Z,93.30
2023-05-10T04:58:59.751Z,92.18
2023-05-10T05:01:26.273Z,89.21
2023-05-10T05:03:53.995Z,89.56
2023-05-10T05:06:21.926Z,89.36
2023-05-10T05:08:50.250Z,89.81
2023-05-10T05:11:17.147Z,90.20
2023-05-10T05:13:43.648Z,89.53
2023-05-10T05:16:10.191Z,89.76
2023-05-10T05:18:36.771Z,93.02
2023-05-10T05:21:03.348Z,93.87
2023-05-10T05:23:29.816Z,92.79
2023-05-10T05:25:56.304Z,92.78
2023-05-10T05:28:22.794Z,92.46
2023-05-10T05:30:49.346Z,92.26
2023-05-10T05:33:16.462Z,90.63
2023-05-10T05:35:45.587Z,91.74
2023-05-10T05:38:12.273Z,91.83
2023-05-10T05:40:38.805Z,92.86
2023-05-10T05:43:05.405Z,92.31
2023-05-10T05:45:31.924Z,93.42
2023-05-10T05:47:58.561Z,94.09
2023-05-10T05:50:25.019Z,94.44
2023-05-10T05:52:52.007Z,94.23
2023-05-10T05:55:18.736Z,93.81
2023-05-10T05:57:45.351Z,93.00
2023-05-10T06:00:12.190Z,92.31
2023-05-10T06:02:38.869Z,92.81
2023-05-10T06:05:06.205Z,92.98
2023-05-10T06:07:32.766Z,93.60
2023-05-10T06:09:59.278Z,94.17
2023-05-10T06:12:25.775Z,94.04
2023-05-10T06:14:52.527Z,93.81
2023-05-10T06:17:19.333Z,94.92
2023-05-10T06:19:45.784Z,93.85
2023-05-10T06:22:12.227Z,91.87
2023-05-10T06:24:38.746Z,92.00
2023-05-10T06:27:05.196Z,91.19
2023-05-10T06:29:31.692Z,92.45
2023-05-10T06:31:58.333Z,92.01
2023-05-10T06:34:24.944Z,91.41
2023-05-10T06:36:51.401Z,91.79
2023-05-10T06:39:17.943Z,90.43
2023-05-10T06:41:44.408Z,88.89
2023-05-10T06:44:10.852Z,88.94
2023-05-10T06:46:37.470Z,89.16
2023-05-10T06:49:04.305Z,89.98
2023-05-10T06:51:30.759Z,89.44
2023-05-10T06:53:57.280Z,88.63
2023-05-10T06:56:23.826Z,88.82
2023-05-10T06:58:50.460Z,89.98
2023-05-10T07:01:17.206Z,88.24
2023-05-10T07:03:43.880Z,88.88
2023-05-10T07:06:21.620Z,88.50
2023-05-10T07:08:52.203Z,92.45
2023-05-10T07:11:18.664Z,90.77
2023-05-10T07:13:47.101Z,90.08
2023-05-10T07:16:13.749Z,87.33
2023-05-10T07:18:40.280Z,88.62
2023-05-10T07:21:06.822Z,89.39
2023-05-10T07:23:34.003Z,88.63
2023-05-10T07:26:01.023Z,90.43
2023-05-10T07:28:27.492Z,91.70
2023-05-10T07:30:53.997Z,90.22
2023-05-10T07:33:20.576Z,88.25
2023-05-10T07:35:47.079Z,87.85
2023-05-10T07:38:13.681Z,86.53
2023-05-10T07:40:40.343Z,86.95
2023-05-10T07:43:06.958Z,85.75
2023-05-10T07:45:34.352Z,86.97
2023-05-10T07:48:01.174Z,84.57
2023-05-10T07:50:27.917Z,84.57
2023-05-10T07:52:54.581Z,83.91
2023-05-10T07:57:48.743Z,85.32
2023-05-10T08:00:18.707Z,85.35
2023-05-10T08:02:45.269Z,83.83
2023-05-10T08:05:11.821Z,85.40
2023-05-10T08:07:38.339Z,82.98
2023-05-10T08:10:05.255Z,81.53
2023-05-10T08:12:31.811Z,83.94
2023-05-10T08:14:58.605Z,81.14
2023-05-10T08:17:25.246Z,82.53
2023-05-10T08:19:51.707Z,82.08
2023-05-10T08:22:18.221Z,82.64
2023-05-10T08:24:44.684Z,82.11
2023-05-10T08:27:11.218Z,81.14
2023-05-10T08:29:48.972Z,79.94
2023-05-10T08:32:16.500Z,80.73
2023-05-10T08:34:43.028Z,80.76
2023-05-10T08:37:09.589Z,81.12
2023-05-10T08:39:36.434Z,80.97
2023-05-10T08:42:04.387Z,79.01
2023-05-10T08:44:33.856Z,78.13
2023-05-10T08:47:00.354Z,80.68
2023-05-10T08:49:27.066Z,79.86
2023-05-10T08:51:55.835Z,80.64
2023-05-10T08:54:22.663Z,81.76
2023-05-10T08:56:49.885Z,81.54
2023-05-10T08:59:16.900Z,80.66
2023-05-10T09:01:44.990Z,81.20
2023-05-10T09:04:11.651Z,80.21
2023-05-10T09:06:38.275Z,79.44
2023-05-10T09:09:04.774Z,79.56
2023-05-10T09:11:31.317Z,79.41
2023-05-10T09:13:57.775Z,78.37
2023-05-10T09:16:24.724Z,78.31
2023-05-10T09:18:51.419Z,76.10
2023-05-10T09:21:17.986Z,77.60
2023-05-10T09:23:48.135Z,75.66
2023-05-10T09:26:15.001Z,76.09
2023-05-10T09:28:57.743Z,75.83
2023-05-10T09:31:25.095Z,74.37
2023-05-10T09:33:52.125Z,75.65
2023-05-10T09:36:18.821Z,75.48
2023-05-10T09:38:55.190Z,74.75
2023-05-10T09:41:23.046Z,74.83
2023-05-10T09:43:49.630Z,74.13
2023-05-10T09:46:17.000Z,75.06
2023-05-10T09:48:45.039Z,75.37
2023-05-10T09:51:11.629Z,75.56
2023-05-10T09:53:38.317Z,75.51
2023-05-10T09:56:04.792Z,74.48
2023-05-10T09:58:31.264Z,74.16
2023-05-10T10:00:57.847Z,72.31
2023-05-10T10:03:25.271Z,74.09
2023-05-10T10:05:52.299Z,73.00
2023-05-10T10:08:18.862Z,71.84
2023-05-10T10:10:47.044Z,72.11
2023-05-10T10:13:13.822Z,71.92
2023-05-10T10:15:40.305Z,73.79
2023-05-10T10:18:06.850Z,69.93
2023-05-10T10:20:34.151Z,69.09
2023-05-10T10:23:00.779Z,67.05
2023-05-10T10:25:27.263Z,67.21
2023-05-10T10:27:53.637Z,66.01
2023-05-10T10:30:29.224Z,62.16
2023-05-10T10:33:35.167Z,66.48
2023-05-10T10:36:03.233Z,63.28
2023-05-10T10:38:47.901Z,62.13
2023-05-10T10:41:38.040Z,61.10
2023-05-10T10:44:23.236Z,60.68
2023-05-10T10:47:03.319Z,61.26
2023-05-10T10:49:38.338Z,60.41
2023-05-10T10:52:32.116Z,63.31
2023-05-10T10:55:02.259Z,63.95
2023-05-10T10:57:31.036Z,62.55
2023-05-10T11:00:25.452Z,63.75
2023-05-10T11:03:05.318Z,61.84
2023-05-10T11:05:41.410Z,62.46
2023-05-10T11:08:09.865Z,65.56
2023-05-10T11:10:36.418Z,65.03
2023-05-10T11:13:07.216Z,61.78
2023-05-10T11:15:34.045Z,64.13
2023-05-10T11:18:00.631Z,64.65
2023-05-10T11:20:34.422Z,61.21
2023-05-10T11:23:12.864Z,62.27
2023-05-10T11:25:44.006Z,61.02
2023-05-10T11:28:10.986Z,62.32
2023-05-10T11:30:39.097Z,62.71
2023-05-10T11:33:05.993Z,63.49
2023-05-10T11:35:32.465Z,62.51
2023-05-10T11:37:58.955Z,63.03
2023-05-10T11:40:25.611Z,61.77
2023-05-10T11:42:52.083Z,62.39
2023-05-10T11:45:18.595Z,62.22
2023-05-10T11:47:45.226Z,60.38
2023-05-10T11:50:11.930Z,57.90
2023-05-10T11:52:38.756Z,59.51
2023-05-10T11:55:06.121Z,58.35
2023-05-10T11:57:32.659Z,59.40
2023-05-10T11:59:59.163Z,57.61
2023-05-10T12:02:25.982Z,57.11
2023-05-10T12:04:52.589Z,56.65
2023-05-10T12:07:19.161Z,56.37
2023-05-10T12:09:48.466Z,57.27
2023-05-10T12:12:17.918Z,58.42
2023-05-10T12:14:44.371Z,57.65
2023-05-10T12:17:14.316Z,60.16
2023-05-10T12:19:40.880Z,57.82
2023-05-10T12:22:07.402Z,56.34
2023-05-10T12:24:40.117Z,56.84
2023-05-10T12:27:09.028Z,53.88
2023-05-10T12:29:35.632Z,52.78
2023-05-10T12:32:02.285Z,55.22
2023-05-10T12:34:33.707Z,54.36
2023-05-10T12:37:00.678Z,57.79
2023-05-10T12:39:27.268Z,57.54
2023-05-10T12:41:53.758Z,60.96
2023-05-10T12:44:20.500Z,64.61
2023-05-10T12:46:47.135Z,66.05
2023-05-10T12:49:13.601Z,68.63
2023-05-10T12:51:40.091Z,68.05
2023-05-10T12:54:06.578Z,69.06
2023-05-10T12:56:33.118Z,75.71
2023-05-10T12:58:59.601Z,83.13
2023-05-10T13:01:26.234Z,85.20
2023-05-10T13:03:52.786Z,87.47
2023-05-10T13:06:19.253Z,87.78
2023-05-10T13:08:45.980Z,92.42
2023-05-10T13:11:12.504Z,91.28
2023-05-10T13:13:38.999Z,92.24
2023-05-10T13:16:05.977Z,92.15
2023-05-10T13:18:32.485Z,93.44
2023-05-10T13:20:59.128Z,94.07
2023-05-10T13:23:25.806Z,93.33
2023-05-10T13:25:52.282Z,93.65
2023-05-10T13:28:18.737Z,91.87
2023-05-10T13:30:45.227Z,92.58
2023-05-10T13:33:11.681Z,92.75
2023-05-10T13:35:38.148Z,94.54
2023-05-10T13:38:04.684Z,90.16
2023-05-10T13:40:31.218Z,91.46
2023-05-10T13:42:57.679Z,90.18
2023-05-10T13:45:24.266Z,93.19
2023-05-10T13:47:50.937Z,93.28
2023-05-10T13:50:17.932Z,93.32
2023-05-10T13:52:44.848Z,92.15
2023-05-10T13:55:13.338Z,91.74
2023-05-10T13:57:39.815Z,90.89
2023-05-10T14:00:07.051Z,91.21
2023-05-10T14:02:33.609Z,91.08
2023-05-10T14:05:00.147Z,88.16
2023-05-10T14:07:26.863Z,87.69
2023-05-10T14:09:53.378Z,91.66
2023-05-10T14:12:19.877Z,90.72
2023-05-10T14:14:46.542Z,90.89
2023-05-10T14:17:13.063Z,90.27
2023-05-10T14:19:39.760Z,92.34
2023-05-10T14:22:06.628Z,91.99
2023-05-10T14:24:33.349Z,92.20
2023-05-10T14:26:59.905Z,92.75
2023-05-10T14:29:26.436Z,92.40
2023-05-10T14:31:53.272Z,92.99
2023-05-10T14:34:19.856Z,91.58
2023-05-10T14:36:46.395Z,92.77
2023-05-10T14:39:14.204Z,93.72
2023-05-10T14:41:45.426Z,91.90
2023-05-10T14:44:12.011Z,92.52
2023-05-10T14:46:39.093Z,92.95
2023-05-10T14:49:05.559Z,92.37
2023-05-10T14:51:32.721Z,93.84
2023-05-10T14:53:59.284Z,92.17
2023-05-10T14:56:26.741Z,93.03
2023-05-10T14:58:54.172Z,94.64
2023-05-10T15:01:21.231Z,94.64
2023-05-10T15:03:48.196Z,94.47
2023-05-10T15:06:15.966Z,94.35
2023-05-10T15:08:42.447Z,93.04
2023-05-10T15:11:08.936Z,94.74
2023-05-10T15:13:35.459Z,94.17
2023-05-10T15:16:02.122Z,94.15
2023-05-10T15:18:28.629Z,94.78
2023-05-10T15:20:56.323Z,93.91
2023-05-10T15:23:22.949Z,94.45
2023-05-10T15:25:51.252Z,94.54
2023-05-10T15:28:17.761Z,92.28
2023-05-10T15:30:44.972Z,94.65
2023-05-10T15:33:11.463Z,92.97
2023-05-10T15:35:39.253Z,93.95
2023-05-10T15:38:05.999Z,94.52
2023-05-10T15:40:32.622Z,95.57
2023-05-10T15:42:59.131Z,95.92
2023-05-10T15:45:25.602Z,96.19
2023-05-10T15:47:52.418Z,97.43
2023-05-10T15:50:19.176Z,98.13
2023-05-10T15:52:46.905Z,98.28
2023-05-10T15:55:13.426Z,98.27
2023-05-10T15:57:41.285Z,98.29
2023-05-10T16:00:09.262Z,98.31
2023-05-10T16:02:36.008Z,97.53
2023-05-10T16:05:02.870Z,97.77
2023-05-10T16:07:29.372Z,98.08
2023-05-10T16:09:55.975Z,98.27
2023-05-10T16:12:22.512Z,98.59
2023-05-10T16:14:49.147Z,98.69
2023-05-10T16:17:15.791Z,98.51
2023-05-10T16:19:42.406Z,98.81
2023-05-10T16:22:08.887Z,98.55
2023-05-10T16:24:36.011Z,99.10
2023-05-10T16:27:03.159Z,98.63
2023-05-10T16:29:29.662Z,99.38
2023-05-10T16:31:56.120Z,98.89
2023-05-10T16:34:24.319Z,99.02
2023-05-10T16:36:51.502Z,98.79
2023-05-10T16:39:18.040Z,99.40
2023-05-10T16:41:45.102Z,98.87
2023-05-10T16:44:11.566Z,99.04
2023-05-10T16:46:38.327Z,99.19
2023-05-10T16:49:04.881Z,98.90
2023-05-10T16:51:34.210Z,99.67
2023-05-10T16:54:01.341Z,99.30
2023-05-10T16:56:27.853Z,99.22
2023-05-10T16:58:54.342Z,99.31
2023-05-10T17:01:21.497Z,99.49
2023-05-10T17:03:48.583Z,100.00
2023-05-10T17:06:15.165Z,100.00
2023-05-10T17:08:42.022Z,99.85
2023-05-10T17:11:08.521Z,100.00
2023-05-10T17:13:35.005Z,100.00
2023-05-10T17:16:04.857Z,99.61
2023-05-10T17:18:31.659Z,100.00
2023-05-10T17:20:58.249Z,100.00
2023-05-10T17:23:24.712Z,100.00
2023-05-10T17:25:51.347Z,99.81
2023-05-10T17:28:18.100Z,99.77
2023-05-10T17:30:44.617Z,99.19
2023-05-10T17:33:11.206Z,98.91
2023-05-10T17:35:37.752Z,97.73
2023-05-10T17:38:04.282Z,97.42
2023-05-10T17:40:30.846Z,97.15
2023-05-10T17:42:57.352Z,97.56
2023-05-10T17:45:23.885Z,99.31
2023-05-10T17:47:50.484Z,99.25
2023-05-10T17:50:17.135Z,100.00
2023-05-10T17:52:43.632Z,100.00
2023-05-10T17:55:10.993Z,100.00
2023-05-10T17:57:38.692Z,100.00
2023-05-10T18:00:06.549Z,100.00
2023-05-10T18:02:33.137Z,100.00
2023-05-10T18:05:01.275Z,100.00
2023-05-10T18:07:29.943Z,100.00
2023-05-10T18:09:59.395Z,100.00
2023-05-10T18:12:25.933Z,100.00
2023-05-10T18:14:52.467Z,100.00
2023-05-10T18:17:19.398Z,100.00
2023-05-10T18:19:45.843Z,99.52
2023-05-10T18:22:12.650Z,98.96
2023-05-10T18:24:40.216Z,98.71
2023-05-10T18:27:08.626Z,95.84
2023-05-10T18:29:36.089Z,96.12
2023-05-10T18:32:02.671Z,96.02
2023-05-10T18:34:29.125Z,96.37
2023-05-10T18:36:56.410Z,97.42
2023-05-10T18:39:24.235Z,97.02
2023-05-10T18:41:50.839Z,97.27
2023-05-10T18:44:18.770Z,97.61
2023-05-10T18:46:45.338Z,98.70
2023-05-10T18:49:11.992Z,98.46
2023-05-10T18:51:38.528Z,98.38
2023-05-10T18:54:05.151Z,98.55
2023-05-10T18:56:31.709Z,97.95
2023-05-10T18:58:58.148Z,98.36
2023-05-10T19:01:24.821Z,98.48
2023-05-10T19:03:51.364Z,99.69
2023-05-10T19:06:17.839Z,99.61
2023-05-10T19:08:44.358Z,100.00
2023-05-10T19:11:10.878Z,100.00
2023-05-10T19:13:37.393Z,100.00
2023-05-10T19:16:13.277Z,100.00
2023-05-10T19:18:40.599Z,100.00
2023-05-10T19:21:10.386Z,100.00
2023-05-10T19:23:39.656Z,100.00
2023-05-10T19:26:06.397Z,100.00
2023-05-10T19:28:34.204Z,100.00
2023-05-10T19:31:01.744Z,100.00
2023-05-10T19:33:28.391Z,100.00
2023-05-10T19:35:55.282Z,100.00
2023-05-10T19:38:25.161Z,100.00
2023-05-10T19:40:57.506Z,100.00
2023-05-10T19:43:27.339Z,100.00
2023-05-10T19:45:54.392Z,100.00
2023-05-10T19:48:20.849Z,100.00
2023-05-10T19:50:47.402Z,100.00
2023-05-10T19:53:13.992Z,100.00
2023-05-10T19:55:40.560Z,100.00
2023-05-10T19:58:07.122Z,100.00
2023-05-10T20:00:33.654Z,100.00
2023-05-10T20:03:00.237Z,100.00
2023-05-10T20:05:26.886Z,100.00
2023-05-10T20:07:53.390Z,100.00
2023-05-10T20:10:19.850Z,100.00
2023-05-10T20:12:51.025Z,100.00
2023-05-10T20:15:19.344Z,100.00
2023-05-10T20:17:46.443Z,100.00
2023-05-10T20:20:13.985Z,100.00
2023-05-10T20:22:40.521Z,100.00
2023-05-10T20:25:07.595Z,100.00
2023-05-10T20:27:34.395Z,100.00
2023-05-10T20:30:00.979Z,100.00
2023-05-10T20:32:27.710Z,100.00
2023-05-10T20:34:54.280Z,100.00
2023-05-10T20:37:20.743Z,100.00
2023-05-10T20:39:49.796Z,100.00
2023-05-10T20:42:17.207Z,100.00
2023-05-10T20:44:43.664Z,100.00
2023-05-10T20:47:10.115Z,100.00
2023-05-10T20:49:37.960Z,100.00
2023-05-10T20:52:05.051Z,100.00
2023-05-10T20:54:31.593Z,100.00
2023-05-10T20:56:58.072Z,100.00
2023-05-10T20:59:24.558Z,100.00
2023-05-10T21:01:51.097Z,100.00
2023-05-10T21:04:17.653Z,100.00
2023-05-10T21:06:44.412Z,100.00
2023-05-10T21:09:10.908Z,100.00
2023-05-10T21:11:38.422Z,100.00
2023-05-10T21:14:05.444Z,100.00
2023-05-10T21:16:32.025Z,100.00
2023-05-10T21:18:58.594Z,100.00
2023-05-10T21:21:25.192Z,100.00
2023-05-10T21:23:51.676Z,100.00
2023-05-10T21:26:18.558Z,100.00
2023-05-10T21:28:45.534Z,100.00
2023-05-10T21:31:12.090Z,100.00
2023-05-10T21:33:39.592Z,100.00
2023-05-10T21:36:06.276Z,100.00
2023-05-10T21:38:32.976Z,100.00
2023-05-10T21:40:59.613Z,100.00
2023-05-10T21:43:26.057Z,100.00
2023-05-10T21:45:52.535Z,100.00
2023-05-10T21:48:19.818Z,100.00
2023-05-10T21:50:47.757Z,100.00
2023-05-10T21:53:14.216Z,100.00
2023-05-10T21:55:40.699Z,100.00
2023-05-10T21:58:07.209Z,100.00
2023-05-10T22:00:34.291Z,100.00
2023-05-10T22:03:01.013Z,100.00
2023-05-10T22:05:27.502Z,100.00
2023-05-10T22:07:53.953Z,100.00
2023-05-10T22:10:20.572Z,100.00
2023-05-10T22:12:47.081Z,100.00
2023-05-10T22:15:13.591Z,100.00
2023-05-10T22:17:40.432Z,100.00
2023-05-10T22:20:08.298Z,100.00
2023-05-10T22:22:34.741Z,100.00
2023-05-10T22:25:01.260Z,100.00
2023-05-10T22:27:27.708Z,100.00
2023-05-10T22:29:54.191Z,100.00
2023-05-10T22:32:20.667Z,100.00
2023-05-10T22:34:47.320Z,100.00
2023-05-10T22:37:17.638Z,100.00
2023-05-10T22:39:45.696Z,100.00
2023-05-10T22:42:12.202Z,100.00
2023-05-10T22:44:38.731Z,100.00
2023-05-10T22:47:06.586Z,100.00
2023-05-10T22:49:33.580Z,100.00
2023-05-10T22:52:00.184Z,100.00
2023-05-10T22:54:26.878Z,100.00
2023-05-10T22:56:53.459Z,100.00
2023-05-10T22:59:20.356Z,100.00
2023-05-10T23:01:48.866Z,100.00
2023-05-10T23:04:15.780Z,100.00
2023-05-10T23:06:42.303Z,100.00
2023-05-10T23:09:09.015Z,100.00
2023-05-10T23:11:35.473Z,100.00
2023-05-10T23:14:02.106Z,100.00
2023-05-10T23:16:28.644Z,100.00
2023-05-10T23:18:55.591Z,100.00
2023-05-10T23:21:22.128Z,100.00
2023-05-10T23:23:48.686Z,100.00
2023-05-10T23:26:15.205Z,100.00
2023-05-10T23:28:41.786Z,100.00
2023-05-10T23:31:08.387Z,100.00
2023-05-10T23:33:34.916Z,100.00
2023-05-10T23:36:01.362Z,100.00
2023-05-10T23:38:27.935Z,100.00
2023-05-10T23:40:54.953Z,100.00
2023-05-10T23:43:21.845Z,100.00
2023-05-10T23:45:57.641Z,100.00
2023-05-10T23:48:24.286Z,100.00
2023-05-10T23:50:50.766Z,100.00
2023-05-10T23:53:17.268Z,100.00
2023-05-10T23:55:43.800Z,100.00
2023-05-10T23:58:10.633Z,100.00
